Capelinha, Brazil
Current Conditions -  °F | °C
As of 9:00 PM on Saturday 25 Oct 2014 (Local Time) from SBMK Reporting Station
Clear Clear  
Wind Chill: 81°   Ceiling: Unl
Heat Index: 81°   Visibility: 6mi
Dew Point: 48°   Wind: 7mph
Humidity: 32%   Direction: 90°E
Pressure: 29.91"   Gusts: NA
Location:  17.69°S, 42.54°W
Report Text: SBMK 252300Z 09006KT CAVOK 27/09 Q1013
Loading
Personal Weather Stations






























Interactive Weather Map
Tropical Storm Tracking
New forecast layout! Learn more

10-Day Weather Forecast

Advertisements
Track Severe Weather on mobile